sensor_id;sensor_type;location;lat;lon;timestamp;P1;durP1;ratioP1;P2;durP2;ratioP2
53618;SDS011;39505;53.040;18.488;2022-10-16T00:00:00;45.85;;;30.63;;
53618;SDS011;39505;53.040;18.488;2022-10-16T00:00:13;45.60;;;30.90;;
53618;SDS011;39505;53.040;18.488;2022-10-16T00:00:45;48.25;;;31.73;;
53618;SDS011;39505;53.040;18.488;2022-10-16T00:01:17;49.03;;;31.20;;
53618;SDS011;39505;53.040;18.488;2022-10-16T00:01:31;49.28;;;31.17;;
53618;SDS011;39505;53.040;18.488;2022-10-16T00:01:44;47.88;;;31.25;;
53618;SDS011;39505;53.040;18.488;2022-10-16T00:01:56;47.45;;;31.15;;
53618;SDS011;39505;53.040;18.488;2022-10-16T00:02:09;46.33;;;31.10;;
53618;SDS011;39505;53.040;18.488;2022-10-16T00:02:23;45.58;;;31.08;;
53618;SDS011;39505;53.040;18.488;2022-10-16T00:02:36;46.17;;;31.23;;
53618;SDS011;39505;53.040;18.488;2022-10-16T00:02:49;47.22;;;31.55;;
53618;SDS011;39505;53.040;18.488;2022-10-16T00:03:01;48.45;;;31.75;;
53618;SDS011;39505;53.040;18.488;2022-10-16T00:03:15;47.75;;;31.35;;
53618;SDS011;39505;53.040;18.488;2022-10-16T00:03:27;47.13;;;31.10;;
53618;SDS011;39505;53.040;18.488;2022-10-16T00:03:41;49.10;;;31.55;;
53618;SDS011;39505;53.040;18.488;2022-10-16T00:03:57;49.30;;;31.45;;
53618;SDS011;39505;53.040;18.488;2022-10-16T00:04:10;47.90;;;31.23;;
53618;SDS011;39505;53.040;18.488;2022-10-16T00:04:23;47.90;;;31.42;;
53618;SDS011;39505;53.040;18.488;2022-10-16T00:04:36;48.10;;;31.60;;
53618;SDS011;39505;53.040;18.488;2022-10-16T00:04:48;47.63;;;31.38;;
53618;SDS011;39505;53.040;18.488;2022-10-16T00:05:01;46.28;;;30.83;;
53618;SDS011;39505;53.040;18.488;2022-10-16T00:05:14;46.05;;;31.17;;
53618;SDS011;39505;53.040;18.488;2022-10-16T00:05:28;47.75;;;31.10;;
53618;SDS011;39505;53.040;18.488;2022-10-16T00:05:41;52.03;;;31.45;;
53618;SDS011;39505;53.040;18.488;2022-10-16T00:05:58;53.30;;;31.77;;
53618;SDS011;39505;53.040;18.488;2022-10-16T00:06:12;50.67;;;32.05;;
53618;SDS011;39505;53.040;18.488;2022-10-16T00:06:26;50.15;;;32.45;;
53618;SDS011;39505;53.040;18.488;2022-10-16T00:06:39;48.65;;;32.08;;
53618;SDS011;39505;53.040;18.488;2022-10-16T00:06:53;46.67;;;30.88;;
53618;SDS011;39505;53.040;18.488;2022-10-16T00:07:06;47.22;;;30.67;;
53618;SDS011;39505;53.040;18.488;2022-10-16T00:07:18;48.45;;;31.05;;
53618;SDS011;39505;53.040;18.488;2022-10-16T00:07:31;48.00;;;30.92;;
53618;SDS011;39505;53.040;18.488;2022-10-16T00:07:44;48.25;;;31.15;;
53618;SDS011;39505;53.040;18.488;2022-10-16T00:07:56;48.42;;;31.23;;
53618;SDS011;39505;53.040;18.488;2022-10-16T00:08:10;48.25;;;31.13;;
53618;SDS011;39505;53.040;18.488;2022-10-16T00:08:23;45.95;;;30.77;;
53618;SDS011;39505;53.040;18.488;2022-10-16T00:08:37;46.15;;;30.75;;
53618;SDS011;39505;53.040;18.488;2022-10-16T00:08:50;48.50;;;31.35;;
53618;SDS011;39505;53.040;18.488;2022-10-16T00:09:04;49.17;;;32.42;;
53618;SDS011;39505;53.040;18.488;2022-10-16T00:09:17;48.30;;;31.70;;
53618;SDS011;39505;53.040;18.488;2022-10-16T00:09:30;48.97;;;31.45;;
53618;SDS011;39505;53.040;18.488;2022-10-16T00:09:42;49.00;;;31.38;;
53618;SDS011;39505;53.040;18.488;2022-10-16T00:09:56;46.63;;;31.42;;
53618;SDS011;39505;53.040;18.488;2022-10-16T00:10:09;46.58;;;31.63;;
53618;SDS011;39505;53.040;18.488;2022-10-16T00:10:22;47.08;;;31.30;;
53618;SDS011;39505;53.040;18.488;2022-10-16T00:10:35;48.47;;;31.35;;
53618;SDS011;39505;53.040;18.488;2022-10-16T00:10:48;49.85;;;31.75;;
53618;SDS011;39505;53.040;18.488;2022-10-16T00:11:01;53.47;;;31.52;;
53618;SDS011;39505;53.040;18.488;2022-10-16T00:11:15;52.15;;;31.23;;
53618;SDS011;39505;53.040;18.488;2022-10-16T00:11:31;46.05;;;31.25;;
53618;SDS011;39505;53.040;18.488;2022-10-16T00:11:45;47.60;;;31.98;;
53618;SDS011;39505;53.040;18.488;2022-10-16T00:11:58;47.58;;;31.63;;
53618;SDS011;39505;53.040;18.488;2022-10-16T00:12:10;48.10;;;31.20;;
53618;SDS011;39505;53.040;18.488;2022-10-16T00:12:23;51.72;;;31.05;;
53618;SDS011;39505;53.040;18.488;2022-10-16T00:12:36;51.45;;;31.85;;
53618;SDS011;39505;53.040;18.488;2022-10-16T00:12:49;49.85;;;31.95;;
53618;SDS011;39505;53.040;18.488;2022-10-16T00:13:03;48.92;;;31.38;;
53618;SDS011;39505;53.040;18.488;2022-10-16T00:13:16;47.70;;;30.92;;
53618;SDS011;39505;53.040;18.488;2022-10-16T00:13:30;47.53;;;30.75;;
53618;SDS011;39505;53.040;18.488;2022-10-16T00:13:44;47.28;;;30.38;;
53618;SDS011;39505;53.040;18.488;2022-10-16T00:13:58;45.35;;;30.40;;
53618;SDS011;39505;53.040;18.488;2022-10-16T00:14:13;45.33;;;30.77;;
53618;SDS011;39505;53.040;18.488;2022-10-16T00:14:27;47.33;;;31.20;;
53618;SDS011;39505;53.040;18.488;2022-10-16T00:14:40;47.65;;;30.75;;
53618;SDS011;39505;53.040;18.488;2022-10-16T00:14:56;46.25;;;30.67;;
53618;SDS011;39505;53.040;18.488;2022-10-16T00:15:09;47.42;;;31.15;;
53618;SDS011;39505;53.040;18.488;2022-10-16T00:15:22;48.85;;;31.35;;
53618;SDS011;39505;53.040;18.488;2022-10-16T00:15:35;47.92;;;31.50;;
53618;SDS011;39505;53.040;18.488;2022-10-16T00:15:48;48.08;;;31.20;;
53618;SDS011;39505;53.040;18.488;2022-10-16T00:16:01;48.42;;;31.30;;
53618;SDS011;39505;53.040;18.488;2022-10-16T00:16:16;48.00;;;30.65;;
53618;SDS011;39505;53.040;18.488;2022-10-16T00:16:29;46.22;;;30.20;;
53618;SDS011;39505;53.040;18.488;2022-10-16T00:16:42;46.72;;;30.45;;
53618;SDS011;39505;53.040;18.488;2022-10-16T00:16:54;47.63;;;30.90;;
53618;SDS011;39505;53.040;18.488;2022-10-16T00:17:07;47.47;;;30.98;;
53618;SDS011;39505;53.040;18.488;2022-10-16T00:17:20;46.65;;;30.48;;
53618;SDS011;39505;53.040;18.488;2022-10-16T00:17:33;46.25;;;30.38;;
53618;SDS011;39505;53.040;18.488;2022-10-16T00:17:46;47.78;;;30.92;;
53618;SDS011;39505;53.040;18.488;2022-10-16T00:17:59;49.33;;;30.88;;
53618;SDS011;39505;53.040;18.488;2022-10-16T00:18:12;48.95;;;30.75;;
53618;SDS011;39505;53.040;18.488;2022-10-16T00:18:26;49.63;;;31.10;;
53618;SDS011;39505;53.040;18.488;2022-10-16T00:18:40;47.72;;;30.83;;
53618;SDS011;39505;53.040;18.488;2022-10-16T00:18:52;47.80;;;30.63;;
53618;SDS011;39505;53.040;18.488;2022-10-16T00:19:06;47.65;;;30.63;;
53618;SDS011;39505;53.040;18.488;2022-10-16T00:19:19;45.20;;;30.75;;
53618;SDS011;39505;53.040;18.488;2022-10-16T00:19:32;46.53;;;30.98;;
53618;SDS011;39505;53.040;18.488;2022-10-16T00:19:45;48.35;;;31.40;;
53618;SDS011;39505;53.040;18.488;2022-10-16T00:19:57;50.10;;;31.38;;
53618;SDS011;39505;53.040;18.488;2022-10-16T00:20:10;51.15;;;31.35;;
53618;SDS011;39505;53.040;18.488;2022-10-16T00:20:24;49.58;;;31.35;;
53618;SDS011;39505;53.040;18.488;2022-10-16T00:20:37;49.08;;;31.20;;
53618;SDS011;39505;53.040;18.488;2022-10-16T00:20:49;48.45;;;31.13;;
53618;SDS011;39505;53.040;18.488;2022-10-16T00:21:02;47.78;;;31.10;;
53618;SDS011;39505;53.040;18.488;2022-10-16T00:21:17;46.38;;;30.60;;
53618;SDS011;39505;53.040;18.488;2022-10-16T00:21:32;46.45;;;30.63;;
53618;SDS011;39505;53.040;18.488;2022-10-16T00:21:46;46.58;;;30.77;;
53618;SDS011;39505;53.040;18.488;2022-10-16T00:21:58;47.30;;;31.00;;
53618;SDS011;39505;53.040;18.488;2022-10-16T00:22:11;46.90;;;31.17;;
53618;SDS011;39505;53.040;18.488;2022-10-16T00:22:24;46.00;;;30.73;;
53618;SDS011;39505;53.040;18.488;2022-10-16T00:22:37;47.38;;;31.05;;
53618;SDS011;39505;53.040;18.488;2022-10-16T00:22:50;48.35;;;31.08;;
53618;SDS011;39505;53.040;18.488;2022-10-16T00:23:03;48.10;;;31.38;;
53618;SDS011;39505;53.040;18.488;2022-10-16T00:23:16;47.15;;;30.90;;
53618;SDS011;39505;53.040;18.488;2022-10-16T00:23:30;46.47;;;30.08;;
53618;SDS011;39505;53.040;18.488;2022-10-16T00:23:43;45.67;;;29.52;;
53618;SDS011;39505;53.040;18.488;2022-10-16T00:23:56;46.10;;;30.25;;
53618;SDS011;39505;53.040;18.488;2022-10-16T00:24:11;48.63;;;31.73;;
53618;SDS011;39505;53.040;18.488;2022-10-16T00:24:24;48.42;;;31.40;;
53618;SDS011;39505;53.040;18.488;2022-10-16T00:24:37;48.20;;;31.02;;
53618;SDS011;39505;53.040;18.488;2022-10-16T00:24:50;47.45;;;30.73;;
53618;SDS011;39505;53.040;18.488;2022-10-16T00:25:03;46.83;;;30.30;;
53618;SDS011;39505;53.040;18.488;2022-10-16T00:25:16;48.65;;;30.40;;
53618;SDS011;39505;53.040;18.488;2022-10-16T00:25:29;48.72;;;30.83;;
53618;SDS011;39505;53.040;18.488;2022-10-16T00:25:44;46.95;;;31.33;;
53618;SDS011;39505;53.040;18.488;2022-10-16T00:25:58;48.85;;;31.83;;
53618;SDS011;39505;53.040;18.488;2022-10-16T00:26:12;50.90;;;31.85;;
53618;SDS011;39505;53.040;18.488;2022-10-16T00:26:29;50.20;;;31.77;;
53618;SDS011;39505;53.040;18.488;2022-10-16T00:26:44;47.33;;;31.02;;
53618;SDS011;39505;53.040;18.488;2022-10-16T00:26:56;45.92;;;29.75;;
53618;SDS011;39505;53.040;18.488;2022-10-16T00:27:09;47.33;;;30.50;;
53618;SDS011;39505;53.040;18.488;2022-10-16T00:27:22;47.90;;;31.75;;
53618;SDS011;39505;53.040;18.488;2022-10-16T00:27:35;48.70;;;32.10;;
53618;SDS011;39505;53.040;18.488;2022-10-16T00:27:47;48.50;;;31.23;;
53618;SDS011;39505;53.040;18.488;2022-10-16T00:28:01;49.25;;;31.40;;
53618;SDS011;39505;53.040;18.488;2022-10-16T00:28:14;49.17;;;31.63;;
53618;SDS011;39505;53.040;18.488;2022-10-16T00:28:27;48.78;;;31.70;;
53618;SDS011;39505;53.040;18.488;2022-10-16T00:28:40;48.13;;;31.42;;
53618;SDS011;39505;53.040;18.488;2022-10-16T00:28:53;48.67;;;31.13;;
53618;SDS011;39505;53.040;18.488;2022-10-16T00:29:06;51.17;;;31.95;;
53618;SDS011;39505;53.040;18.488;2022-10-16T00:29:20;48.38;;;31.63;;
53618;SDS011;39505;53.040;18.488;2022-10-16T00:29:33;47.58;;;31.15;;
53618;SDS011;39505;53.040;18.488;2022-10-16T00:29:49;49.15;;;31.67;;
53618;SDS011;39505;53.040;18.488;2022-10-16T00:30:04;49.72;;;31.60;;
53618;SDS011;39505;53.040;18.488;2022-10-16T00:30:17;48.67;;;31.25;;
53618;SDS011;39505;53.040;18.488;2022-10-16T00:30:30;48.28;;;31.13;;
53618;SDS011;39505;53.040;18.488;2022-10-16T00:30:43;49.03;;;31.38;;
53618;SDS011;39505;53.040;18.488;2022-10-16T00:30:55;49.95;;;32.28;;
53618;SDS011;39505;53.040;18.488;2022-10-16T00:31:10;49.40;;;32.20;;
53618;SDS011;39505;53.040;18.488;2022-10-16T00:31:24;50.60;;;31.90;;
53618;SDS011;39505;53.040;18.488;2022-10-16T00:31:37;48.97;;;31.25;;
53618;SDS011;39505;53.040;18.488;2022-10-16T00:31:49;48.92;;;31.13;;
53618;SDS011;39505;53.040;18.488;2022-10-16T00:32:02;51.10;;;31.83;;
53618;SDS011;39505;53.040;18.488;2022-10-16T00:32:15;51.60;;;32.03;;
53618;SDS011;39505;53.040;18.488;2022-10-16T00:32:28;49.85;;;31.80;;
53618;SDS011;39505;53.040;18.488;2022-10-16T00:32:41;51.65;;;32.65;;
53618;SDS011;39505;53.040;18.488;2022-10-16T00:32:54;52.95;;;32.70;;
53618;SDS011;39505;53.040;18.488;2022-10-16T00:33:07;52.75;;;33.22;;
53618;SDS011;39505;53.040;18.488;2022-10-16T00:33:20;52.13;;;33.22;;
53618;SDS011;39505;53.040;18.488;2022-10-16T00:33:32;53.90;;;32.90;;
53618;SDS011;39505;53.040;18.488;2022-10-16T00:33:46;51.67;;;32.30;;
53618;SDS011;39505;53.040;18.488;2022-10-16T00:33:59;49.58;;;31.83;;
53618;SDS011;39505;53.040;18.488;2022-10-16T00:34:12;47.80;;;31.52;;
53618;SDS011;39505;53.040;18.488;2022-10-16T00:34:25;49.25;;;31.30;;
53618;SDS011;39505;53.040;18.488;2022-10-16T00:34:37;50.05;;;30.92;;
53618;SDS011;39505;53.040;18.488;2022-10-16T00:34:50;48.45;;;30.52;;
53618;SDS011;39505;53.040;18.488;2022-10-16T00:35:03;48.28;;;30.77;;
53618;SDS011;39505;53.040;18.488;2022-10-16T00:35:16;48.50;;;31.50;;
53618;SDS011;39505;53.040;18.488;2022-10-16T00:35:30;49.83;;;31.80;;
53618;SDS011;39505;53.040;18.488;2022-10-16T00:35:43;50.85;;;31.73;;
53618;SDS011;39505;53.040;18.488;2022-10-16T00:35:57;48.72;;;31.35;;
53618;SDS011;39505;53.040;18.488;2022-10-16T00:36:11;46.47;;;30.88;;
53618;SDS011;39505;53.040;18.488;2022-10-16T00:36:25;47.30;;;31.02;;
53618;SDS011;39505;53.040;18.488;2022-10-16T00:36:39;50.03;;;31.73;;
53618;SDS011;39505;53.040;18.488;2022-10-16T00:36:51;51.47;;;32.25;;
53618;SDS011;39505;53.040;18.488;2022-10-16T00:37:04;52.00;;;32.05;;
53618;SDS011;39505;53.040;18.488;2022-10-16T00:37:17;49.50;;;31.17;;
53618;SDS011;39505;53.040;18.488;2022-10-16T00:37:30;48.60;;;30.98;;
53618;SDS011;39505;53.040;18.488;2022-10-16T00:37:43;49.08;;;30.92;;
53618;SDS011;39505;53.040;18.488;2022-10-16T00:37:56;48.25;;;31.23;;
53618;SDS011;39505;53.040;18.488;2022-10-16T00:38:08;47.75;;;31.88;;
53618;SDS011;39505;53.040;18.488;2022-10-16T00:38:21;48.40;;;32.08;;
53618;SDS011;39505;53.040;18.488;2022-10-16T00:38:34;48.75;;;31.77;;
53618;SDS011;39505;53.040;18.488;2022-10-16T00:38:50;48.13;;;31.77;;
53618;SDS011;39505;53.040;18.488;2022-10-16T00:39:05;48.47;;;31.40;;
53618;SDS011;39505;53.040;18.488;2022-10-16T00:39:18;50.42;;;31.38;;
53618;SDS011;39505;53.040;18.488;2022-10-16T00:39:31;49.97;;;31.63;;
53618;SDS011;39505;53.040;18.488;2022-10-16T00:39:44;50.92;;;31.80;;
53618;SDS011;39505;53.040;18.488;2022-10-16T00:39:57;51.38;;;32.55;;
53618;SDS011;39505;53.040;18.488;2022-10-16T00:40:10;50.35;;;33.03;;
53618;SDS011;39505;53.040;18.488;2022-10-16T00:40:24;49.20;;;31.95;;
53618;SDS011;39505;53.040;18.488;2022-10-16T00:40:36;50.25;;;31.80;;
53618;SDS011;39505;53.040;18.488;2022-10-16T00:40:49;51.03;;;32.30;;
53618;SDS011;39505;53.040;18.488;2022-10-16T00:41:02;51.28;;;33.08;;
53618;SDS011;39505;53.040;18.488;2022-10-16T00:41:15;51.25;;;32.97;;
53618;SDS011;39505;53.040;18.488;2022-10-16T00:41:31;49.20;;;32.20;;
53618;SDS011;39505;53.040;18.488;2022-10-16T00:41:45;49.95;;;32.67;;
53618;SDS011;39505;53.040;18.488;2022-10-16T00:41:58;50.10;;;32.58;;
53618;SDS011;39505;53.040;18.488;2022-10-16T00:42:13;49.47;;;32.53;;
53618;SDS011;39505;53.040;18.488;2022-10-16T00:42:27;50.60;;;32.45;;
53618;SDS011;39505;53.040;18.488;2022-10-16T00:42:40;51.20;;;31.90;;
53618;SDS011;39505;53.040;18.488;2022-10-16T00:42:53;51.10;;;31.63;;
53618;SDS011;39505;53.040;18.488;2022-10-16T00:43:09;49.70;;;31.63;;
53618;SDS011;39505;53.040;18.488;2022-10-16T00:43:33;48.92;;;32.05;;
53618;SDS011;39505;53.040;18.488;2022-10-16T00:43:52;51.92;;;32.58;;
53618;SDS011;39505;53.040;18.488;2022-10-16T00:44:53;51.47;;;32.60;;
53618;SDS011;39505;53.040;18.488;2022-10-16T00:45:10;53.15;;;33.03;;
53618;SDS011;39505;53.040;18.488;2022-10-16T00:45:23;52.85;;;33.03;;
53618;SDS011;39505;53.040;18.488;2022-10-16T00:45:36;51.70;;;32.15;;
53618;SDS011;39505;53.040;18.488;2022-10-16T00:45:48;51.63;;;31.83;;
53618;SDS011;39505;53.040;18.488;2022-10-16T00:46:03;51.88;;;31.48;;
53618;SDS011;39505;53.040;18.488;2022-10-16T00:46:19;52.33;;;31.95;;
53618;SDS011;39505;53.040;18.488;2022-10-16T00:46:35;51.53;;;32.67;;
53618;SDS011;39505;53.040;18.488;2022-10-16T00:46:51;51.60;;;32.35;;
53618;SDS011;39505;53.040;18.488;2022-10-16T00:47:04;51.35;;;32.05;;
53618;SDS011;39505;53.040;18.488;2022-10-16T00:47:19;51.60;;;32.05;;
53618;SDS011;39505;53.040;18.488;2022-10-16T00:47:36;49.38;;;32.10;;
53618;SDS011;39505;53.040;18.488;2022-10-16T00:47:51;51.20;;;32.17;;
53618;SDS011;39505;53.040;18.488;2022-10-16T00:48:06;52.95;;;32.38;;
53618;SDS011;39505;53.040;18.488;2022-10-16T00:48:24;51.70;;;32.47;;
53618;SDS011;39505;53.040;18.488;2022-10-16T00:48:38;50.83;;;32.40;;
53618;SDS011;39505;53.040;18.488;2022-10-16T00:48:52;51.53;;;32.47;;
53618;SDS011;39505;53.040;18.488;2022-10-16T00:49:10;49.80;;;32.42;;
53618;SDS011;39505;53.040;18.488;2022-10-16T00:49:24;49.25;;;31.98;;
53618;SDS011;39505;53.040;18.488;2022-10-16T00:49:37;50.47;;;32.03;;
53618;SDS011;39505;53.040;18.488;2022-10-16T00:49:50;50.03;;;31.52;;
53618;SDS011;39505;53.040;18.488;2022-10-16T00:50:07;50.45;;;31.33;;
53618;SDS011;39505;53.040;18.488;2022-10-16T00:50:24;52.40;;;32.10;;
53618;SDS011;39505;53.040;18.488;2022-10-16T00:50:40;50.95;;;32.30;;
53618;SDS011;39505;53.040;18.488;2022-10-16T00:50:55;50.88;;;32.42;;
53618;SDS011;39505;53.040;18.488;2022-10-16T00:51:09;51.72;;;32.67;;
53618;SDS011;39505;53.040;18.488;2022-10-16T00:51:23;50.13;;;31.98;;
53618;SDS011;39505;53.040;18.488;2022-10-16T00:51:41;50.10;;;31.90;;
53618;SDS011;39505;53.040;18.488;2022-10-16T00:51:57;50.95;;;32.47;;
53618;SDS011;39505;53.040;18.488;2022-10-16T00:52:09;50.42;;;32.33;;
53618;SDS011;39505;53.040;18.488;2022-10-16T00:52:23;49.95;;;32.00;;
53618;SDS011;39505;53.040;18.488;2022-10-16T00:52:36;49.45;;;31.77;;
53618;SDS011;39505;53.040;18.488;2022-10-16T00:52:53;50.08;;;32.22;;
53618;SDS011;39505;53.040;18.488;2022-10-16T00:53:07;50.53;;;31.60;;
53618;SDS011;39505;53.040;18.488;2022-10-16T00:53:22;50.13;;;31.75;;
53618;SDS011;39505;53.040;18.488;2022-10-16T00:53:37;49.80;;;32.38;;
53618;SDS011;39505;53.040;18.488;2022-10-16T00:53:49;51.28;;;31.63;;
53618;SDS011;39505;53.040;18.488;2022-10-16T00:54:03;51.08;;;31.83;;
53618;SDS011;39505;53.040;18.488;2022-10-16T00:54:21;51.20;;;32.72;;
53618;SDS011;39505;53.040;18.488;2022-10-16T00:54:37;51.97;;;32.97;;
53618;SDS011;39505;53.040;18.488;2022-10-16T00:54:50;50.40;;;32.55;;
53618;SDS011;39505;53.040;18.488;2022-10-16T00:55:06;50.75;;;32.17;;
53618;SDS011;39505;53.040;18.488;2022-10-16T00:55:20;50.53;;;32.00;;
53618;SDS011;39505;53.040;18.488;2022-10-16T00:55:33;49.03;;;31.48;;
53618;SDS011;39505;53.040;18.488;2022-10-16T00:55:52;50.45;;;32.05;;
53618;SDS011;39505;53.040;18.488;2022-10-16T00:56:06;49.95;;;31.98;;
53618;SDS011;39505;53.040;18.488;2022-10-16T00:56:18;48.22;;;31.85;;
53618;SDS011;39505;53.040;18.488;2022-10-16T00:56:32;50.55;;;31.95;;
53618;SDS011;39505;53.040;18.488;2022-10-16T00:56:45;51.63;;;32.10;;
53618;SDS011;39505;53.040;18.488;2022-10-16T00:57:00;50.33;;;32.90;;
53618;SDS011;39505;53.040;18.488;2022-10-16T00:57:15;50.17;;;33.28;;
53618;SDS011;39505;53.040;18.488;2022-10-16T00:57:28;49.55;;;32.50;;
53618;SDS011;39505;53.040;18.488;2022-10-16T00:57:41;50.42;;;32.60;;
53618;SDS011;39505;53.040;18.488;2022-10-16T00:57:54;51.20;;;32.55;;
53618;SDS011;39505;53.040;18.488;2022-10-16T00:58:09;51.28;;;32.67;;
53618;SDS011;39505;53.040;18.488;2022-10-16T00:58:22;51.28;;;32.88;;
53618;SDS011;39505;53.040;18.488;2022-10-16T00:58:34;50.17;;;32.30;;
53618;SDS011;39505;53.040;18.488;2022-10-16T00:58:47;50.65;;;32.50;;
53618;SDS011;39505;53.040;18.488;2022-10-16T00:59:01;49.28;;;32.38;;
53618;SDS011;39505;53.040;18.488;2022-10-16T00:59:16;50.85;;;32.78;;
53618;SDS011;39505;53.040;18.488;2022-10-16T00:59:32;54.38;;;32.88;;
53618;SDS011;39505;53.040;18.488;2022-10-16T00:59:48;51.58;;;31.70;;
53618;SDS011;39505;53.040;18.488;2022-10-16T01:00:02;49.40;;;31.48;;
53618;SDS011;39505;53.040;18.488;2022-10-16T01:00:20;48.58;;;30.95;;
53618;SDS011;39505;53.040;18.488;2022-10-16T01:00:35;48.90;;;31.58;;
53618;SDS011;39505;53.040;18.488;2022-10-16T01:00:47;50.85;;;32.25;;
53618;SDS011;39505;53.040;18.488;2022-10-16T01:01:00;52.65;;;32.28;;
53618;SDS011;39505;53.040;18.488;2022-10-16T01:01:13;53.38;;;32.38;;
53618;SDS011;39505;53.040;18.488;2022-10-16T01:01:27;52.33;;;32.60;;
53618;SDS011;39505;53.040;18.488;2022-10-16T01:01:40;52.42;;;33.15;;
53618;SDS011;39505;53.040;18.488;2022-10-16T01:01:53;50.78;;;33.45;;
53618;SDS011;39505;53.040;18.488;2022-10-16T01:02:08;51.67;;;33.70;;
53618;SDS011;39505;53.040;18.488;2022-10-16T01:02:22;52.45;;;33.28;;
53618;SDS011;39505;53.040;18.488;2022-10-16T01:02:35;52.10;;;32.58;;
53618;SDS011;39505;53.040;18.488;2022-10-16T01:02:51;50.88;;;32.35;;
53618;SDS011;39505;53.040;18.488;2022-10-16T01:03:36;50.97;;;32.53;;
53618;SDS011;39505;53.040;18.488;2022-10-16T01:03:49;49.90;;;32.08;;
53618;SDS011;39505;53.040;18.488;2022-10-16T01:04:02;51.72;;;32.88;;
53618;SDS011;39505;53.040;18.488;2022-10-16T01:04:15;52.22;;;33.17;;
53618;SDS011;39505;53.040;18.488;2022-10-16T01:04:30;53.40;;;32.83;;
53618;SDS011;39505;53.040;18.488;2022-10-16T01:04:47;54.65;;;32.50;;
53618;SDS011;39505;53.040;18.488;2022-10-16T01:05:02;51.40;;;32.22;;
53618;SDS011;39505;53.040;18.488;2022-10-16T01:05:17;50.28;;;32.22;;
53618;SDS011;39505;53.040;18.488;2022-10-16T01:05:32;50.75;;;32.35;;
53618;SDS011;39505;53.040;18.488;2022-10-16T01:05:53;51.45;;;32.40;;
53618;SDS011;39505;53.040;18.488;2022-10-16T01:06:21;52.17;;;32.38;;
53618;SDS011;39505;53.040;18.488;2022-10-16T01:06:42;54.40;;;33.67;;
53618;SDS011;39505;53.040;18.488;2022-10-16T01:07:09;53.83;;;33.55;;
53618;SDS011;39505;53.040;18.488;2022-10-16T01:07:34;51.63;;;32.38;;
53618;SDS011;39505;53.040;18.488;2022-10-16T01:07:57;55.13;;;33.15;;
53618;SDS011;39505;53.040;18.488;2022-10-16T01:08:17;50.95;;;32.10;;
53618;SDS011;39505;53.040;18.488;2022-10-16T01:08:38;51.50;;;32.20;;
53618;SDS011;39505;53.040;18.488;2022-10-16T01:09:03;53.25;;;33.13;;
53618;SDS011;39505;53.040;18.488;2022-10-16T01:09:29;55.60;;;33.40;;
53618;SDS011;39505;53.040;18.488;2022-10-16T01:09:52;52.25;;;33.58;;
53618;SDS011;39505;53.040;18.488;2022-10-16T01:10:16;53.42;;;33.53;;
53618;SDS011;39505;53.040;18.488;2022-10-16T01:10:39;52.30;;;33.60;;
53618;SDS011;39505;53.040;18.488;2022-10-16T01:10:59;50.78;;;32.85;;
53618;SDS011;39505;53.040;18.488;2022-10-16T01:11:23;53.58;;;33.53;;
53618;SDS011;39505;53.040;18.488;2022-10-16T01:11:44;53.00;;;33.58;;
53618;SDS011;39505;53.040;18.488;2022-10-16T01:12:09;51.00;;;33.05;;
53618;SDS011;39505;53.040;18.488;2022-10-16T01:12:29;52.63;;;32.95;;
53618;SDS011;39505;53.040;18.488;2022-10-16T01:12:51;52.38;;;32.53;;
53618;SDS011;39505;53.040;18.488;2022-10-16T01:13:09;52.60;;;33.58;;
53618;SDS011;39505;53.040;18.488;2022-10-16T01:13:29;52.70;;;33.55;;
53618;SDS011;39505;53.040;18.488;2022-10-16T01:13:50;51.35;;;32.90;;
53618;SDS011;39505;53.040;18.488;2022-10-16T01:14:08;52.88;;;32.92;;
53618;SDS011;39505;53.040;18.488;2022-10-16T01:14:28;53.03;;;32.58;;
53618;SDS011;39505;53.040;18.488;2022-10-16T01:14:53;51.78;;;32.35;;
53618;SDS011;39505;53.040;18.488;2022-10-16T01:15:11;52.78;;;33.38;;
53618;SDS011;39505;53.040;18.488;2022-10-16T01:15:32;52.47;;;33.40;;
53618;SDS011;39505;53.040;18.488;2022-10-16T01:15:54;54.08;;;33.28;;
53618;SDS011;39505;53.040;18.488;2022-10-16T01:16:11;54.85;;;33.95;;
53618;SDS011;39505;53.040;18.488;2022-10-16T01:16:29;54.35;;;34.42;;
53618;SDS011;39505;53.040;18.488;2022-10-16T01:16:52;52.92;;;34.70;;
53618;SDS011;39505;53.040;18.488;2022-10-16T01:17:11;52.90;;;33.67;;
53618;SDS011;39505;53.040;18.488;2022-10-16T01:17:29;54.58;;;33.97;;
53618;SDS011;39505;53.040;18.488;2022-10-16T01:17:48;58.05;;;35.05;;
53618;SDS011;39505;53.040;18.488;2022-10-16T01:18:06;55.78;;;35.08;;
53618;SDS011;39505;53.040;18.488;2022-10-16T01:18:25;55.95;;;35.15;;
53618;SDS011;39505;53.040;18.488;2022-10-16T01:18:46;55.80;;;35.47;;
53618;SDS011;39505;53.040;18.488;2022-10-16T01:19:09;53.88;;;33.88;;
53618;SDS011;39505;53.040;18.488;2022-10-16T01:19:30;54.03;;;33.42;;
53618;SDS011;39505;53.040;18.488;2022-10-16T01:20:03;51.63;;;32.28;;
53618;SDS011;39505;53.040;18.488;2022-10-16T01:20:24;53.55;;;33.40;;
53618;SDS011;39505;53.040;18.488;2022-10-16T01:20:42;54.65;;;33.10;;
53618;SDS011;39505;53.040;18.488;2022-10-16T01:21:01;54.72;;;33.03;;
53618;SDS011;39505;53.040;18.488;2022-10-16T01:21:18;56.25;;;33.50;;
53618;SDS011;39505;53.040;18.488;2022-10-16T01:21:35;55.33;;;33.63;;
53618;SDS011;39505;53.040;18.488;2022-10-16T01:21:51;55.95;;;34.58;;
53618;SDS011;39505;53.040;18.488;2022-10-16T01:22:08;56.13;;;34.13;;
53618;SDS011;39505;53.040;18.488;2022-10-16T01:22:21;54.22;;;33.45;;
53618;SDS011;39505;53.040;18.488;2022-10-16T01:22:39;53.33;;;33.78;;
53618;SDS011;39505;53.040;18.488;2022-10-16T01:23:15;54.92;;;33.65;;
53618;SDS011;39505;53.040;18.488;2022-10-16T01:23:38;56.10;;;34.42;;
53618;SDS011;39505;53.040;18.488;2022-10-16T01:24:06;54.22;;;34.03;;
53618;SDS011;39505;53.040;18.488;2022-10-16T01:24:27;53.33;;;33.30;;
53618;SDS011;39505;53.040;18.488;2022-10-16T01:24:46;55.30;;;33.97;;
53618;SDS011;39505;53.040;18.488;2022-10-16T01:25:02;57.72;;;34.63;;
53618;SDS011;39505;53.040;18.488;2022-10-16T01:25:25;57.92;;;34.88;;
53618;SDS011;39505;53.040;18.488;2022-10-16T01:25:53;56.20;;;34.28;;
53618;SDS011;39505;53.040;18.488;2022-10-16T01:26:24;57.45;;;34.65;;
53618;SDS011;39505;53.040;18.488;2022-10-16T01:27:26;56.67;;;36.00;;
53618;SDS011;39505;53.040;18.488;2022-10-16T01:27:41;56.67;;;35.78;;
53618;SDS011;39505;53.040;18.488;2022-10-16T01:27:58;57.05;;;34.88;;
53618;SDS011;39505;53.040;18.488;2022-10-16T01:28:13;56.78;;;34.75;;
53618;SDS011;39505;53.040;18.488;2022-10-16T01:28:28;55.53;;;34.90;;
53618;SDS011;39505;53.040;18.488;2022-10-16T01:28:49;57.97;;;35.50;;
53618;SDS011;39505;53.040;18.488;2022-10-16T01:29:07;58.53;;;35.38;;
53618;SDS011;39505;53.040;18.488;2022-10-16T01:29:25;57.78;;;35.78;;
53618;SDS011;39505;53.040;18.488;2022-10-16T01:29:44;58.05;;;35.30;;
53618;SDS011;39505;53.040;18.488;2022-10-16T01:30:05;57.90;;;35.95;;